createdAt,value
2018-09-02T00:01:39.233Z,3.27
2018-09-02T00:04:07.444Z,4.40
2018-09-02T00:06:35.637Z,4.30
2018-09-02T00:09:04.533Z,4.30
2018-09-02T00:11:32.956Z,3.53
2018-09-02T00:14:01.185Z,4.73
2018-09-02T00:16:29.355Z,4.47
2018-09-02T00:18:57.474Z,3.87
2018-09-02T00:21:26.617Z,4.17
2018-09-02T00:23:54.698Z,3.57
2018-09-02T00:26:22.764Z,4.07
2018-09-02T00:28:50.872Z,4.03
2018-09-02T00:31:19.072Z,3.80
2018-09-02T00:33:47.281Z,4.20
2018-09-02T00:36:15.874Z,4.70
2018-09-02T00:38:43.944Z,4.70
2018-09-02T00:41:12.128Z,4.93
2018-09-02T00:43:40.308Z,4.60
2018-09-02T00:46:08.409Z,4.33
2018-09-02T00:48:36.769Z,4.00
2018-09-02T00:51:05.207Z,4.43
2018-09-02T00:53:33.717Z,4.10
2018-09-02T00:56:01.850Z,4.90
2018-09-02T00:58:29.939Z,5.07
2018-09-02T01:00:58.108Z,4.87
2018-09-02T01:03:26.316Z,5.00
2018-09-02T01:05:54.374Z,5.00
2018-09-02T01:08:22.608Z,4.63
2018-09-02T01:10:50.962Z,5.50
2018-09-02T01:13:19.198Z,5.30
2018-09-02T01:15:48.222Z,5.50
2018-09-02T01:18:16.930Z,4.30
2018-09-02T01:20:45.292Z,5.17
2018-09-02T01:23:13.494Z,4.50
2018-09-02T01:25:41.656Z,5.13
2018-09-02T01:28:09.768Z,4.67
2018-09-02T01:30:38.117Z,5.50
2018-09-02T01:33:07.094Z,5.57
2018-09-02T01:35:35.209Z,4.83
2018-09-02T01:38:05.206Z,5.10
2018-09-02T01:40:34.072Z,4.67
2018-09-02T01:43:02.229Z,4.87
2018-09-02T01:45:30.294Z,5.10
2018-09-02T01:47:58.429Z,4.87
2018-09-02T01:50:26.538Z,5.53
2018-09-02T01:52:54.587Z,5.13
2018-09-02T01:55:22.657Z,5.60
2018-09-02T01:57:50.719Z,5.47
2018-09-02T02:00:18.917Z,5.97
2018-09-02T02:02:47.660Z,5.40
2018-09-02T02:05:16.121Z,5.70
2018-09-02T02:07:44.521Z,5.10
2018-09-02T02:10:12.791Z,5.20
2018-09-02T02:12:40.916Z,5.20
2018-09-02T02:15:09.023Z,4.70
2018-09-02T02:17:37.450Z,5.73
2018-09-02T02:20:05.511Z,5.77
2018-09-02T02:22:34.272Z,5.03
2018-09-02T02:25:02.548Z,5.80
2018-09-02T02:27:30.741Z,5.67
2018-09-02T02:29:58.937Z,5.67
2018-09-02T02:32:27.088Z,5.30
2018-09-02T02:34:55.157Z,5.00
2018-09-02T02:37:23.442Z,5.40
2018-09-02T02:39:51.521Z,5.53
2018-09-02T02:42:19.605Z,5.30
2018-09-02T02:44:47.788Z,5.97
2018-09-02T02:47:15.870Z,5.63
2018-09-02T02:49:43.940Z,5.20
2018-09-02T02:52:12.431Z,6.60
2018-09-02T02:54:40.597Z,6.37
2018-09-02T02:57:08.781Z,6.20
2018-09-02T02:59:36.846Z,6.70
2018-09-02T03:02:04.920Z,6.43
2018-09-02T03:04:33.096Z,6.73
2018-09-02T03:07:01.518Z,7.33
2018-09-02T03:09:29.605Z,7.87
2018-09-02T03:11:57.822Z,6.90
2018-09-02T03:14:25.905Z,8.20
2018-09-02T03:16:53.964Z,7.30
2018-09-02T03:19:22.032Z,7.70
2018-09-02T03:21:50.455Z,7.90
2018-09-02T03:24:18.932Z,8.73
2018-09-02T03:26:47.092Z,8.40
2018-09-02T03:29:15.240Z,8.27
2018-09-02T03:31:43.305Z,9.20
2018-09-02T03:34:11.822Z,9.57
2018-09-02T03:36:39.879Z,8.80
2018-09-02T03:39:07.940Z,9.73
2018-09-02T03:41:36.034Z,10.13
2018-09-02T03:44:04.224Z,9.80
2018-09-02T03:46:32.344Z,11.00
2018-09-02T03:49:00.573Z,10.03
2018-09-02T03:51:28.993Z,9.63
2018-09-02T03:53:57.303Z,10.30
2018-09-02T03:56:25.368Z,10.60
2018-09-02T03:58:53.608Z,11.93
2018-09-02T04:01:21.708Z,11.90
2018-09-02T04:03:49.769Z,11.03
2018-09-02T04:06:17.884Z,10.50
2018-09-02T04:08:45.991Z,10.77
2018-09-02T04:11:14.108Z,11.50
2018-09-02T04:13:42.317Z,11.50
2018-09-02T04:16:10.478Z,12.20
2018-09-02T04:18:38.552Z,10.83
2018-09-02T04:21:06.985Z,11.57
2018-09-02T04:23:35.042Z,11.17
2018-09-02T04:26:03.116Z,11.60
2018-09-02T04:28:31.229Z,11.77
2018-09-02T04:30:59.320Z,12.10
2018-09-02T04:33:27.506Z,13.33
2018-09-02T04:35:56.237Z,13.93
2018-09-02T04:38:24.378Z,13.47
2018-09-02T04:40:52.451Z,12.97
2018-09-02T04:43:20.524Z,12.53
2018-09-02T04:45:48.644Z,13.33
2018-09-02T04:48:16.774Z,13.60
2018-09-02T04:50:44.868Z,13.57
2018-09-02T04:53:13.000Z,14.10
2018-09-02T04:55:41.076Z,14.67
2018-09-02T04:58:09.218Z,13.90
2018-09-02T05:00:37.286Z,14.80
2018-09-02T05:03:05.381Z,15.97
2018-09-02T05:05:33.553Z,14.20
2018-09-02T05:08:01.610Z,13.40
2018-09-02T05:10:29.678Z,12.90
2018-09-02T05:12:57.750Z,13.23
2018-09-02T05:15:25.844Z,12.60
2018-09-02T05:17:53.958Z,10.70
2018-09-02T05:20:22.043Z,11.40
2018-09-02T05:22:50.187Z,9.73
2018-09-02T05:25:18.273Z,10.60
2018-09-02T05:27:46.385Z,10.47
2018-09-02T05:30:14.545Z,9.53
2018-09-02T05:32:42.744Z,10.60
2018-09-02T05:35:11.088Z,9.50
2018-09-02T05:37:39.204Z,9.73
2018-09-02T05:40:07.640Z,9.90
2018-09-02T05:42:35.691Z,10.53
2018-09-02T05:45:03.884Z,9.53
2018-09-02T05:47:31.945Z,10.40
2018-09-02T05:50:00.037Z,9.03
2018-09-02T05:52:28.118Z,9.10
2018-09-02T05:54:56.216Z,9.70
2018-09-02T05:57:24.530Z,9.23
2018-09-02T05:59:52.842Z,8.27
2018-09-02T06:02:20.925Z,8.50
2018-09-02T06:04:49.049Z,8.80
2018-09-02T06:07:17.133Z,9.83
2018-09-02T06:09:45.208Z,8.90
2018-09-02T06:12:13.281Z,8.10
2018-09-02T06:14:41.375Z,9.90
2018-09-02T06:17:09.553Z,10.27
2018-09-02T06:19:37.762Z,8.70
2018-09-02T06:22:05.853Z,8.30
2018-09-02T06:24:34.133Z,9.17
2018-09-02T06:27:02.236Z,8.73
2018-09-02T06:29:30.308Z,9.50
2018-09-02T06:31:58.384Z,8.47
2018-09-02T06:34:26.461Z,8.97
2018-09-02T06:36:54.529Z,8.60
2018-09-02T06:39:22.630Z,8.27
2018-09-02T06:41:50.880Z,8.60
2018-09-02T06:44:19.032Z,8.03
2018-09-02T06:46:47.174Z,9.77
2018-09-02T06:49:15.332Z,8.90
2018-09-02T06:51:43.388Z,9.10
2018-09-02T06:54:11.500Z,9.90
2018-09-02T06:56:39.617Z,9.40
2018-09-02T06:59:07.824Z,9.13
2018-09-02T07:01:35.884Z,9.63
2018-09-02T07:04:03.969Z,8.27
2018-09-02T07:06:32.097Z,8.60
2018-09-02T07:09:00.351Z,8.90
2018-09-02T07:11:28.427Z,8.50
2018-09-02T07:13:56.857Z,9.23
2018-09-02T07:16:24.952Z,9.40
2018-09-02T07:18:53.086Z,10.13
2018-09-02T07:21:21.161Z,10.70
2018-09-02T07:23:49.303Z,10.60
2018-09-02T07:26:17.437Z,10.03
2018-09-02T07:28:45.596Z,10.73
2018-09-02T07:31:13.893Z,9.53
2018-09-02T07:33:42.167Z,9.87
2018-09-02T07:36:10.402Z,9.73
2018-09-02T07:38:38.520Z,8.70
2018-09-02T07:41:06.642Z,10.23
2018-09-02T07:43:34.736Z,9.07
2018-09-02T07:46:03.105Z,9.40
2018-09-02T07:48:31.188Z,9.40
2018-09-02T07:50:59.297Z,10.10
2018-09-02T07:53:27.533Z,10.77
2018-09-02T07:55:55.720Z,9.93
2018-09-02T07:58:23.794Z,9.37
2018-09-02T08:00:51.910Z,10.50
2018-09-02T08:03:22.054Z,9.07
2018-09-02T08:05:50.189Z,10.07
2018-09-02T08:08:18.302Z,9.77
2018-09-02T08:10:46.373Z,9.63
2018-09-02T08:13:14.601Z,8.57
2018-09-02T08:15:42.669Z,8.77
2018-09-02T08:18:10.744Z,8.30
2018-09-02T08:20:38.822Z,8.70
2018-09-02T08:23:06.945Z,8.90
2018-09-02T08:25:35.022Z,9.53
2018-09-02T08:28:03.118Z,9.10
2018-09-02T08:30:31.198Z,8.90
2018-09-02T08:32:59.404Z,8.70
2018-09-02T08:35:27.717Z,8.43
2018-09-02T08:37:55.824Z,9.20
2018-09-02T08:40:23.896Z,9.10
2018-09-02T08:42:51.966Z,9.03
2018-09-02T08:45:20.115Z,9.07
2018-09-02T08:47:48.413Z,8.97
2018-09-02T08:50:16.529Z,9.40
2018-09-02T08:52:44.653Z,8.17
2018-09-02T08:55:12.809Z,9.80
2018-09-02T08:57:40.956Z,9.90
2018-09-02T09:00:09.376Z,9.40
2018-09-02T09:02:37.420Z,9.93
2018-09-02T09:05:05.541Z,9.20
2018-09-02T09:07:33.826Z,9.13
2018-09-02T09:10:02.637Z,8.70
2018-09-02T09:12:30.696Z,9.30
2018-09-02T09:14:58.827Z,9.73
2018-09-02T09:17:26.937Z,8.10
2018-09-02T09:19:55.119Z,8.33
2018-09-02T09:22:23.170Z,8.43
2018-09-02T09:24:51.274Z,8.30
2018-09-02T09:27:19.536Z,9.20
2018-09-02T09:29:47.603Z,9.07
2018-09-02T09:32:15.710Z,8.23
2018-09-02T09:34:43.956Z,8.30
2018-09-02T09:37:12.061Z,9.17
2018-09-02T09:39:40.159Z,9.13
2018-09-02T09:42:08.311Z,9.50
2018-09-02T09:44:36.369Z,8.90
2018-09-02T09:47:04.444Z,9.73
2018-09-02T09:49:32.612Z,10.30
2018-09-02T09:52:00.743Z,9.43
2018-09-02T09:54:28.967Z,8.63
2018-09-02T09:56:57.105Z,8.00
2018-09-02T09:59:25.210Z,9.43
2018-09-02T10:01:53.292Z,8.60
2018-09-02T10:04:21.476Z,9.37
2018-09-02T10:06:49.600Z,9.10
2018-09-02T10:09:17.686Z,9.30
2018-09-02T10:11:45.893Z,9.30
2018-09-02T10:14:14.237Z,9.20
2018-09-02T10:16:42.341Z,10.00
2018-09-02T10:19:10.535Z,9.20
2018-09-02T10:21:38.648Z,8.87
2018-09-02T10:24:06.860Z,10.17
2018-09-02T10:26:35.405Z,10.43
2018-09-02T10:29:03.546Z,9.70
2018-09-02T10:31:31.870Z,10.30
2018-09-02T10:33:59.988Z,11.53
2018-09-02T10:36:28.129Z,10.17
2018-09-02T10:38:56.224Z,11.40
2018-09-02T10:41:24.436Z,11.70
2018-09-02T10:43:52.730Z,11.90
2018-09-02T10:46:20.792Z,11.87
2018-09-02T10:48:48.913Z,12.00
2018-09-02T10:51:17.078Z,11.03
2018-09-02T10:53:45.204Z,11.97
2018-09-02T10:56:13.391Z,11.73
2018-09-02T10:58:41.557Z,11.00
2018-09-02T11:01:10.016Z,11.20
2018-09-02T11:03:38.255Z,10.27
2018-09-02T11:06:06.390Z,9.87
2018-09-02T11:08:34.541Z,9.57
2018-09-02T11:11:02.689Z,10.20
2018-09-02T11:13:30.822Z,10.33
2018-09-02T11:15:59.076Z,9.90
2018-09-02T11:18:27.213Z,10.07
2018-09-02T11:20:55.395Z,10.00
2018-09-02T11:23:23.712Z,10.87
2018-09-02T11:25:51.828Z,10.07
2018-09-02T11:28:19.946Z,10.13
2018-09-02T11:30:48.093Z,11.03
2018-09-02T11:33:16.260Z,11.33
2018-09-02T11:35:44.428Z,11.43
2018-09-02T11:38:12.518Z,10.10
2018-09-02T11:40:40.625Z,10.50
2018-09-02T11:43:08.694Z,11.63
2018-09-02T11:45:37.126Z,10.47
2018-09-02T11:48:05.236Z,10.97
2018-09-02T11:50:33.313Z,11.77
2018-09-02T11:53:01.484Z,11.37
2018-09-02T11:55:29.669Z,10.77
2018-09-02T11:57:57.817Z,11.13
2018-09-02T12:00:25.937Z,11.00
2018-09-02T12:02:54.091Z,11.33
2018-09-02T12:05:22.222Z,12.27
2018-09-02T12:07:50.331Z,12.10
2018-09-02T12:10:18.441Z,12.07
2018-09-02T12:12:46.560Z,12.60
2018-09-02T12:15:14.770Z,13.53
2018-09-02T12:17:43.017Z,12.67
2018-09-02T12:20:11.131Z,11.07
2018-09-02T12:22:39.193Z,12.30
2018-09-02T12:25:07.302Z,12.00
2018-09-02T12:27:35.433Z,13.37
2018-09-02T12:30:03.573Z,14.60
2018-09-02T12:32:31.661Z,14.33
2018-09-02T12:34:59.764Z,15.73
2018-09-02T12:37:27.878Z,14.47
2018-09-02T12:39:56.039Z,14.57
2018-09-02T12:42:24.128Z,15.40
2018-09-02T12:44:52.189Z,13.43
2018-09-02T12:47:20.293Z,11.83
2018-09-02T12:49:48.381Z,12.43
2018-09-02T12:52:16.462Z,11.47
2018-09-02T12:54:44.564Z,11.63
2018-09-02T12:57:12.672Z,12.80
2018-09-02T12:59:40.767Z,14.10
2018-09-02T13:02:08.899Z,13.07
2018-09-02T13:04:37.169Z,14.40
2018-09-02T13:07:05.434Z,14.00
2018-09-02T13:09:33.744Z,11.80
2018-09-02T13:12:02.037Z,12.47
2018-09-02T13:14:30.132Z,12.90
2018-09-02T13:16:58.271Z,12.47
2018-09-02T13:19:26.367Z,12.60
2018-09-02T13:21:54.515Z,12.60
2018-09-02T13:24:22.609Z,12.87
2018-09-02T13:26:51.115Z,13.83
2018-09-02T13:29:19.398Z,12.93
2018-09-02T13:31:47.560Z,14.10
2018-09-02T13:34:15.821Z,15.13
2018-09-02T13:36:43.975Z,13.97
2018-09-02T13:39:12.252Z,12.97
2018-09-02T13:41:40.364Z,15.10
2018-09-02T13:44:08.450Z,13.50
2018-09-02T13:46:36.585Z,14.60
2018-09-02T13:49:04.820Z,15.27
2018-09-02T13:51:33.009Z,13.90
2018-09-02T13:54:01.363Z,15.47
2018-09-02T13:56:29.681Z,15.03
2018-09-02T13:58:58.017Z,15.63
2018-09-02T14:01:26.224Z,15.93
2018-09-02T14:03:54.413Z,15.93
2018-09-02T14:06:22.780Z,17.30
2018-09-02T14:08:50.924Z,15.40
2018-09-02T14:11:19.112Z,16.60
2018-09-02T14:13:47.324Z,16.13
2018-09-02T14:16:15.497Z,14.87
2018-09-02T14:18:43.617Z,16.43
2018-09-02T14:21:11.710Z,15.53
2018-09-02T14:23:39.832Z,15.43
2018-09-02T14:26:07.936Z,16.07
2018-09-02T14:28:36.094Z,15.57
2018-09-02T14:31:05.204Z,16.87
2018-09-02T14:33:33.310Z,17.30
2018-09-02T14:36:01.430Z,17.20
2018-09-02T14:38:29.530Z,16.80
2018-09-02T14:40:57.658Z,17.40
2018-09-02T14:43:25.749Z,16.97
2018-09-02T14:45:53.940Z,18.70
2018-09-02T14:48:22.426Z,17.90
2018-09-02T14:50:50.738Z,17.93
2018-09-02T14:53:19.064Z,18.20
2018-09-02T14:55:47.225Z,17.67
2018-09-02T14:58:15.406Z,16.93
2018-09-02T15:00:43.570Z,17.70
2018-09-02T15:03:11.684Z,18.00
2018-09-02T15:05:39.801Z,18.00
2018-09-02T15:08:07.921Z,17.67
2018-09-02T15:10:36.228Z,18.07
2018-09-02T15:13:04.404Z,20.10
2018-09-02T15:15:32.624Z,19.40
2018-09-02T15:18:00.769Z,17.93
2018-09-02T15:20:28.960Z,18.20
2018-09-02T15:22:57.231Z,18.40
2018-09-02T15:25:25.451Z,17.13
2018-09-02T15:27:53.644Z,16.67
2018-09-02T15:30:22.534Z,18.70
2018-09-02T15:32:50.658Z,18.40
2018-09-02T15:35:18.879Z,18.73
2018-09-02T15:37:47.025Z,19.57
2018-09-02T15:40:16.821Z,18.70
2018-09-02T15:42:44.937Z,20.67
2018-09-02T15:45:13.069Z,21.57
2018-09-02T15:47:41.149Z,20.80
2018-09-02T15:50:09.398Z,21.00
2018-09-02T15:52:37.549Z,23.17
2018-09-02T15:55:05.724Z,22.57
2018-09-02T15:57:34.295Z,21.07
2018-09-02T16:00:02.412Z,21.60
2018-09-02T16:02:30.597Z,24.30
2018-09-02T16:04:58.700Z,23.70
2018-09-02T16:07:30.578Z,21.50
2018-09-02T16:10:00.003Z,25.83
2018-09-02T16:12:28.421Z,26.43
2018-09-02T16:14:56.755Z,25.20
2018-09-02T16:17:24.891Z,21.60
2018-09-02T16:19:53.254Z,21.97
2018-09-02T16:22:21.589Z,23.97
2018-09-02T16:24:49.717Z,22.80
2018-09-02T16:27:17.919Z,23.77
2018-09-02T16:29:46.117Z,24.40
2018-09-02T16:32:14.413Z,23.93
2018-09-02T16:34:43.184Z,24.80
2018-09-02T16:37:11.361Z,26.27
2018-09-02T16:39:39.757Z,25.17
2018-09-02T16:42:07.883Z,25.27
2018-09-02T16:44:36.018Z,24.80
2018-09-02T16:47:04.507Z,23.63
2018-09-02T16:49:32.600Z,25.33
2018-09-02T16:52:00.694Z,24.70
2018-09-02T16:54:28.879Z,24.93
2018-09-02T16:56:57.018Z,26.90
2018-09-02T16:59:25.176Z,26.10
2018-09-02T17:01:53.254Z,26.07
2018-09-02T17:04:22.411Z,25.37
2018-09-02T17:06:50.528Z,26.97
2018-09-02T17:09:18.637Z,25.20
2018-09-02T17:11:46.735Z,24.93
2018-09-02T17:14:15.005Z,24.97
2018-09-02T17:16:43.100Z,26.10
2018-09-02T17:19:14.946Z,27.23
2018-09-02T17:21:43.184Z,31.67
2018-09-02T17:24:11.337Z,25.60
2018-09-02T17:26:39.473Z,26.80
2018-09-02T17:29:07.672Z,26.43
2018-09-02T17:31:36.034Z,26.30
2018-09-02T17:34:04.161Z,26.70
2018-09-02T17:36:32.432Z,28.27
2018-09-02T17:39:00.528Z,26.40
2018-09-02T17:41:28.615Z,25.07
2018-09-02T17:43:56.901Z,24.77
2018-09-02T17:46:25.057Z,28.27
2018-09-02T17:48:53.210Z,28.53
2018-09-02T17:51:21.309Z,28.23
2018-09-02T17:53:49.400Z,28.00
2018-09-02T17:56:17.537Z,25.73
2018-09-02T17:58:45.917Z,26.13
2018-09-02T18:01:14.027Z,27.30
2018-09-02T18:03:42.187Z,25.37
2018-09-02T18:06:10.373Z,26.77
2018-09-02T18:08:38.560Z,25.33
2018-09-02T18:11:06.733Z,26.77
2018-09-02T18:13:34.824Z,25.80
2018-09-02T18:16:03.067Z,25.17
2018-09-02T18:18:31.241Z,25.77
2018-09-02T18:20:59.809Z,26.40
2018-09-02T18:23:28.004Z,25.53
2018-09-02T18:25:56.239Z,28.10
2018-09-02T18:28:27.290Z,28.87
2018-09-02T18:30:55.628Z,27.30
2018-09-02T18:33:24.339Z,24.43
2018-09-02T18:35:52.692Z,24.40
2018-09-02T18:38:20.930Z,24.90
2018-09-02T18:40:49.369Z,25.23
2018-09-02T18:43:17.865Z,24.30
2018-09-02T18:45:45.990Z,24.60
2018-09-02T18:48:14.158Z,25.10
2018-09-02T18:50:42.612Z,25.33
2018-09-02T18:53:10.764Z,24.33
2018-09-02T18:55:38.877Z,24.67
2018-09-02T18:58:07.005Z,24.97
2018-09-02T19:00:35.737Z,25.13
2018-09-02T19:03:03.993Z,24.17
2018-09-02T19:05:32.481Z,25.50
2018-09-02T19:08:00.911Z,24.40
2018-09-02T19:10:29.568Z,26.50
2018-09-02T19:12:58.042Z,25.80
2018-09-02T19:15:26.202Z,27.23
2018-09-02T19:17:54.355Z,26.33
2018-09-02T19:20:22.972Z,25.70
2018-09-02T19:22:51.206Z,24.87
2018-09-02T19:25:19.564Z,25.20
2018-09-02T19:27:47.914Z,26.60
2018-09-02T19:30:16.076Z,26.13
2018-09-02T19:32:44.523Z,25.57
2018-09-02T19:35:12.778Z,26.23
2018-09-02T19:37:41.163Z,26.47
2018-09-02T19:40:09.655Z,26.40
2018-09-02T19:42:37.971Z,25.10
2018-09-02T19:45:06.791Z,26.93
2018-09-02T19:47:35.153Z,27.27
2018-09-02T19:50:03.302Z,26.93
2018-09-02T19:52:31.509Z,27.47
2018-09-02T19:55:00.013Z,27.40
2018-09-02T19:57:28.188Z,30.33
2018-09-02T19:59:56.371Z,28.60
2018-09-02T20:02:24.612Z,30.03
2018-09-02T20:04:52.865Z,29.50
2018-09-02T20:07:20.985Z,28.90
2018-09-02T20:09:49.094Z,28.50
2018-09-02T20:12:17.698Z,27.93
2018-09-02T20:14:45.796Z,26.83
2018-09-02T20:17:13.901Z,28.10
2018-09-02T20:19:41.989Z,26.30
2018-09-02T20:22:11.781Z,27.10
2018-09-02T20:24:39.970Z,25.60
2018-09-02T20:27:08.400Z,27.67
2018-09-02T20:29:36.569Z,25.47
2018-09-02T20:32:05.101Z,27.40
2018-09-02T20:34:33.217Z,27.60
2018-09-02T20:37:01.315Z,26.30
2018-09-02T20:39:29.518Z,27.47
2018-09-02T20:41:57.615Z,27.03
2018-09-02T20:44:25.821Z,28.60
2018-09-02T20:46:54.029Z,26.97
2018-09-02T20:49:22.111Z,26.50
2018-09-02T20:51:50.212Z,25.93
2018-09-02T20:54:18.416Z,23.63
2018-09-02T20:56:46.628Z,25.47
2018-09-02T20:59:14.782Z,27.57
2018-09-02T21:01:42.875Z,26.80
2018-09-02T21:04:11.001Z,28.47
2018-09-02T21:06:39.114Z,28.90
2018-09-02T21:09:08.200Z,29.00
2018-09-02T21:11:36.421Z,32.33
2018-09-02T21:14:04.524Z,31.77
2018-09-02T21:16:32.755Z,30.77
2018-09-02T21:19:00.862Z,31.30
2018-09-02T21:21:29.065Z,32.20
2018-09-02T21:23:57.232Z,32.10
2018-09-02T21:26:25.386Z,29.70
2018-09-02T21:28:53.509Z,33.20
2018-09-02T21:31:21.809Z,32.47
2018-09-02T21:33:49.910Z,33.40
2018-09-02T21:36:18.122Z,32.30
2018-09-02T21:38:46.196Z,32.03
2018-09-02T21:41:14.288Z,32.53
2018-09-02T21:43:42.441Z,32.40
2018-09-02T21:46:10.541Z,33.17
2018-09-02T21:48:38.654Z,32.17
2018-09-02T21:51:06.917Z,31.10
2018-09-02T21:53:35.166Z,33.43
2018-09-02T21:56:03.347Z,32.77
2018-09-02T21:58:31.401Z,35.93
2018-09-02T22:00:59.493Z,33.93
2018-09-02T22:03:27.634Z,33.67
2018-09-02T22:05:55.753Z,34.00
2018-09-02T22:08:23.858Z,32.73
2018-09-02T22:10:52.089Z,33.50
2018-09-02T22:13:20.190Z,33.83
2018-09-02T22:15:48.488Z,31.33
2018-09-02T22:18:16.920Z,32.90
2018-09-02T22:20:44.985Z,32.97
2018-09-02T22:23:13.139Z,33.63
2018-09-02T22:25:41.344Z,32.23
2018-09-02T22:28:09.682Z,30.90
2018-09-02T22:30:37.788Z,34.83
2018-09-02T22:33:05.948Z,32.87
2018-09-02T22:35:34.096Z,32.00
2018-09-02T22:38:02.361Z,34.00
2018-09-02T22:40:30.449Z,33.30
2018-09-02T22:42:58.741Z,32.93
2018-09-02T22:45:26.968Z,33.50
2018-09-02T22:47:55.584Z,32.50
2018-09-02T22:50:23.752Z,32.77
2018-09-02T22:52:51.913Z,33.50
2018-09-02T22:55:20.008Z,32.90
2018-09-02T22:57:48.398Z,35.63
2018-09-02T23:00:16.636Z,36.87
2018-09-02T23:02:44.739Z,35.57
2018-09-02T23:05:12.849Z,33.83
2018-09-02T23:07:40.993Z,37.13
2018-09-02T23:10:09.080Z,34.27
2018-09-02T23:12:37.265Z,34.17
2018-09-02T23:15:05.345Z,35.23
2018-09-02T23:17:33.502Z,36.17
2018-09-02T23:20:01.643Z,34.03
2018-09-02T23:22:29.946Z,35.23
2018-09-02T23:24:58.071Z,35.07
2018-09-02T23:27:26.391Z,33.80
2018-09-02T23:29:54.507Z,35.40
2018-09-02T23:32:23.025Z,36.33
2018-09-02T23:34:51.225Z,34.90
2018-09-02T23:37:19.284Z,35.57
2018-09-02T23:39:47.347Z,36.60
2018-09-02T23:42:15.569Z,34.67
2018-09-02T23:44:43.635Z,35.63
2018-09-02T23:47:11.896Z,34.73
2018-09-02T23:49:39.974Z,34.63
2018-09-02T23:52:08.425Z,35.40
2018-09-02T23:54:36.651Z,35.10
2018-09-02T23:57:05.500Z,35.80
2018-09-02T23:59:33.560Z,35.20
